Time;durP1;ratioP1;P1;durP2;ratioP2;P2;SDS_P1;SDS_P2;PMS_P1;PMS_P2;Temp;Humidity;BMP_temperature;BMP_pressure;BME280_temperature;BME280_humidity;BME280_pressure;Samples;Min_cycle;Max_cycle;Signal;HPM_P1;HPM_P2
2023/03/06 00:00:47;;;;;;;19.87;11.37;;;2.80;99.90;;;;;;5078926;28;20505;-72
2023/03/06 00:03:13;;;;;;;19.67;11.70;;;2.80;99.90;;;;;;5077957;28;20471;-71
2023/03/06 00:05:41;;;;;;;19.43;11.00;;;2.80;99.90;;;;;;5073193;28;20505;-72
2023/03/06 00:08:07;;;;;;;22.43;12.20;;;2.80;99.90;;;;;;5079816;28;20456;-71
2023/03/06 00:10:34;;;;;;;20.50;11.50;;;2.80;99.90;;;;;;5079128;28;20935;-72
2023/03/06 00:13:03;;;;;;;18.90;11.40;;;2.80;99.90;;;;;;5071035;28;20470;-72
2023/03/06 00:15:31;;;;;;;19.23;11.40;;;2.80;99.90;;;;;;5071132;28;20502;-71
2023/03/06 00:17:59;;;;;;;24.27;11.23;;;2.80;99.90;;;;;;5074978;28;20498;-71
2023/03/06 00:20:26;;;;;;;21.00;10.90;;;2.80;99.90;;;;;;5071766;28;20937;-72
2023/03/06 00:22:55;;;;;;;24.90;10.67;;;2.70;99.90;;;;;;5071054;28;20452;-72
2023/03/06 00:25:23;;;;;;;17.10;10.30;;;2.80;99.90;;;;;;5078839;28;20866;-71
2023/03/06 00:27:50;;;;;;;16.10;10.50;;;2.80;99.90;;;;;;5070714;28;20512;-71
2023/03/06 00:30:20;;;;;;;16.33;9.30;;;2.80;99.90;;;;;;5074795;28;20525;-71
2023/03/06 00:32:46;;;;;;;19.60;11.07;;;2.80;99.90;;;;;;5079006;28;20452;-71
2023/03/06 00:35:15;;;;;;;19.53;9.90;;;2.80;99.90;;;;;;5076441;28;20447;-72
2023/03/06 00:37:42;;;;;;;17.17;9.60;;;2.80;99.90;;;;;;5072822;28;20491;-71
2023/03/06 00:40:11;;;;;;;21.57;10.70;;;2.80;99.90;;;;;;5070191;28;21010;-71
2023/03/06 00:42:38;;;;;;;17.30;9.90;;;2.70;99.90;;;;;;5071000;28;20878;-71
2023/03/06 00:45:06;;;;;;;16.47;10.00;;;2.70;99.90;;;;;;5079270;28;20892;-71
2023/03/06 00:47:32;;;;;;;14.47;8.80;;;2.70;99.90;;;;;;5071354;28;20452;-71
2023/03/06 00:49:59;;;;;;;19.17;9.43;;;2.70;99.90;;;;;;5070577;28;20448;-72
2023/03/06 00:52:27;;;;;;;18.40;9.77;;;2.70;99.90;;;;;;5070888;28;20448;-71
2023/03/06 00:54:54;;;;;;;20.53;9.53;;;2.70;99.90;;;;;;5073614;28;21136;-71
2023/03/06 00:57:20;;;;;;;18.27;10.90;;;2.70;99.90;;;;;;5074422;28;20997;-71
2023/03/06 00:59:47;;;;;;;20.33;10.90;;;2.70;99.90;;;;;;5073991;28;20579;-71
2023/03/06 01:02:14;;;;;;;20.60;9.67;;;2.70;99.90;;;;;;5087113;28;20446;-71
2023/03/06 01:04:41;;;;;;;21.07;9.40;;;2.80;99.90;;;;;;5076377;28;20893;-71
2023/03/06 01:07:07;;;;;;;16.43;9.27;;;2.80;99.90;;;;;;5074106;28;20515;-71
2023/03/06 01:09:35;;;;;;;17.23;9.97;;;2.80;99.90;;;;;;5073964;28;20526;-71
2023/03/06 01:12:02;;;;;;;17.50;9.00;;;2.90;99.90;;;;;;5078172;28;20452;-71
2023/03/06 01:14:30;;;;;;;22.47;10.67;;;2.80;99.90;;;;;;5085600;28;20516;-71
2023/03/06 01:16:56;;;;;;;17.30;10.27;;;2.80;99.90;;;;;;5074150;28;20484;-71
2023/03/06 01:19:23;;;;;;;19.23;9.97;;;2.80;99.90;;;;;;5073714;28;20455;-71
2023/03/06 01:21:49;;;;;;;16.60;9.70;;;2.80;99.90;;;;;;5073945;28;20460;-71
2023/03/06 01:24:16;;;;;;;22.90;10.57;;;2.80;99.90;;;;;;5082886;28;20463;-71
2023/03/06 01:26:44;;;;;;;20.20;9.53;;;2.70;99.90;;;;;;5073927;28;20448;-71
2023/03/06 01:29:11;;;;;;;18.27;10.30;;;2.70;99.90;;;;;;5080041;28;20535;-71
2023/03/06 01:31:37;;;;;;;19.90;10.90;;;2.60;99.90;;;;;;5085074;28;20454;-71
2023/03/06 01:34:04;;;;;;;20.17;10.80;;;2.60;99.90;;;;;;5073588;28;20470;-72
2023/03/06 01:36:30;;;;;;;18.90;10.17;;;2.60;99.90;;;;;;5073726;28;20543;-71
2023/03/06 01:38:57;;;;;;;17.27;9.80;;;2.70;99.90;;;;;;5073236;28;20455;-71
2023/03/06 01:41:24;;;;;;;16.40;10.03;;;2.70;99.90;;;;;;5080385;28;20451;-71
2023/03/06 01:43:52;;;;;;;19.70;10.37;;;2.70;99.90;;;;;;5078202;28;20990;-72
2023/03/06 01:46:37;;;;;;;16.90;10.33;;;2.70;99.90;;;;;;5079276;28;20476;-71
2023/03/06 01:49:09;;;;;;;21.00;10.27;;;2.70;99.90;;;;;;5073451;28;20463;-71
2023/03/06 01:51:39;;;;;;;21.80;9.93;;;2.70;99.90;;;;;;5073468;28;20452;-72
2023/03/06 01:54:11;;;;;;;18.70;9.70;;;2.80;99.90;;;;;;5073418;28;20520;-71
2023/03/06 01:56:39;;;;;;;19.80;11.00;;;2.80;99.90;;;;;;5079264;28;20490;-71
2023/03/06 01:59:07;;;;;;;17.77;10.07;;;2.80;99.90;;;;;;5073070;28;20986;-72
2023/03/06 02:01:35;;;;;;;18.87;10.33;;;2.70;99.90;;;;;;5077609;28;20443;-72
2023/03/06 02:04:02;;;;;;;17.47;10.60;;;2.70;99.90;;;;;;5072809;28;20475;-72
2023/03/06 02:06:28;;;;;;;21.20;11.67;;;2.70;99.90;;;;;;5073142;28;20436;-71
2023/03/06 02:08:56;;;;;;;19.13;11.90;;;2.70;99.90;;;;;;5072790;28;20600;-71
2023/03/06 02:11:24;;;;;;;21.00;11.20;;;2.70;99.90;;;;;;5081976;28;20448;-71
2023/03/06 02:13:53;;;;;;;21.60;11.63;;;2.70;99.90;;;;;;5072942;28;20476;-71
2023/03/06 02:16:23;;;;;;;21.97;12.07;;;2.60;99.90;;;;;;5072919;28;20443;-71
2023/03/06 02:18:51;;;;;;;22.20;11.83;;;2.60;99.90;;;;;;5079383;28;21024;-71
2023/03/06 02:21:22;;;;;;;24.67;11.53;;;2.70;99.90;;;;;;5072624;28;20450;-71
2023/03/06 02:23:59;;;;;;;19.83;11.57;;;2.70;99.90;;;;;;5082390;28;20469;-71
2023/03/06 02:26:29;;;;;;;19.80;11.10;;;2.80;99.90;;;;;;5085249;28;20508;-71
2023/03/06 02:28:58;;;;;;;19.33;11.63;;;2.80;99.90;;;;;;5072470;28;20455;-72
2023/03/06 02:31:27;;;;;;;21.07;12.40;;;2.80;99.90;;;;;;5072548;28;20566;-71
2023/03/06 02:34:05;;;;;;;26.83;12.03;;;2.70;99.90;;;;;;5072266;28;20525;-71
2023/03/06 02:36:35;;;;;;;20.30;11.50;;;2.80;99.90;;;;;;5072581;28;20501;-72
2023/03/06 02:39:02;;;;;;;19.20;11.90;;;2.80;99.90;;;;;;5072381;28;20517;-72
2023/03/06 02:41:30;;;;;;;24.10;11.13;;;2.80;99.90;;;;;;5074237;28;20457;-72
2023/03/06 02:43:57;;;;;;;25.53;11.33;;;2.80;99.90;;;;;;5081142;28;20528;-71
2023/03/06 02:46:23;;;;;;;20.93;11.90;;;2.80;99.90;;;;;;5083168;28;21011;-71
2023/03/06 02:48:50;;;;;;;20.10;11.20;;;2.80;99.90;;;;;;5074248;28;20474;-72
2023/03/06 02:51:17;;;;;;;23.30;12.10;;;2.70;99.90;;;;;;5072044;28;20994;-72
2023/03/06 02:53:43;;;;;;;20.37;12.07;;;2.70;99.90;;;;;;5072146;28;20533;-72
2023/03/06 02:56:10;;;;;;;23.67;12.90;;;2.70;99.90;;;;;;5072221;28;20513;-73
2023/03/06 02:58:38;;;;;;;21.93;12.83;;;2.60;99.90;;;;;;5071536;28;20516;-72
2023/03/06 03:01:05;;;;;;;27.07;13.17;;;2.70;99.90;;;;;;5077431;28;20464;-72
2023/03/06 03:03:32;;;;;;;22.83;12.77;;;2.70;99.90;;;;;;5076583;28;20480;-71
2023/03/06 03:05:59;;;;;;;23.43;13.83;;;2.70;99.90;;;;;;5071958;28;20451;-72
2023/03/06 03:08:27;;;;;;;24.43;12.13;;;2.70;99.90;;;;;;5071782;28;20440;-72
2023/03/06 03:10:55;;;;;;;21.57;12.10;;;2.70;99.90;;;;;;5071568;28;20455;-72
2023/03/06 03:13:22;;;;;;;21.13;12.73;;;2.70;99.90;;;;;;5071745;28;20479;-72
2023/03/06 03:15:59;;;;;;;29.00;13.93;;;2.60;99.90;;;;;;5071030;28;20501;-72
2023/03/06 03:18:25;;;;;;;26.40;13.20;;;2.60;99.90;;;;;;5071673;28;20810;-72
2023/03/06 03:20:52;;;;;;;24.57;13.87;;;2.60;99.90;;;;;;5071542;28;20542;-72
2023/03/06 03:23:19;;;;;;;28.37;14.23;;;2.60;99.90;;;;;;5075931;28;20513;-71
2023/03/06 03:25:45;;;;;;;27.63;13.70;;;2.60;99.90;;;;;;5076795;28;21016;-71
2023/03/06 03:28:12;;;;;;;28.53;14.17;;;2.60;99.90;;;;;;5071731;28;20447;-71
2023/03/06 03:30:39;;;;;;;26.80;14.20;;;2.50;99.90;;;;;;5073757;28;20512;-72
2023/03/06 03:33:07;;;;;;;27.07;13.70;;;2.50;99.90;;;;;;5071370;28;20462;-71
2023/03/06 03:35:34;;;;;;;29.47;13.80;;;2.50;99.90;;;;;;5071477;28;20501;-72
2023/03/06 03:38:01;;;;;;;30.33;14.93;;;2.60;99.90;;;;;;5073140;28;20993;-71
2023/03/06 03:40:27;;;;;;;31.23;15.77;;;2.60;99.90;;;;;;5071265;28;20451;-71
2023/03/06 03:42:54;;;;;;;27.40;14.13;;;2.60;99.90;;;;;;5072091;28;20606;-72
2023/03/06 03:45:21;;;;;;;29.90;13.03;;;2.60;99.90;;;;;;5079052;28;20507;-72
2023/03/06 03:47:47;;;;;;;27.80;13.23;;;2.60;99.90;;;;;;5071394;28;20450;-71
2023/03/06 03:50:15;;;;;;;26.20;12.60;;;2.50;99.90;;;;;;5076517;28;20453;-72
2023/03/06 03:52:42;;;;;;;25.93;13.70;;;2.50;99.90;;;;;;5070882;28;20587;-71
2023/03/06 03:55:09;;;;;;;30.50;15.10;;;2.50;99.90;;;;;;5071511;28;20996;-72
2023/03/06 03:57:37;;;;;;;27.50;14.60;;;2.40;99.90;;;;;;5070689;28;20898;-71
2023/03/06 04:00:06;;;;;;;31.63;16.07;;;2.40;99.90;;;;;;5071084;28;20454;-72
2023/03/06 04:02:33;;;;;;;30.63;14.70;;;2.40;99.90;;;;;;5076739;28;20829;-72
2023/03/06 04:05:00;;;;;;;26.43;13.03;;;2.30;99.90;;;;;;5086309;28;20479;-72
2023/03/06 04:07:28;;;;;;;36.10;15.33;;;2.30;99.90;;;;;;5071411;28;20447;-71
2023/03/06 04:09:54;;;;;;;26.03;13.83;;;2.30;99.90;;;;;;5071109;28;20454;-71
2023/03/06 04:12:21;;;;;;;26.00;13.70;;;2.30;99.90;;;;;;5071346;28;20477;-71
2023/03/06 04:14:48;;;;;;;28.47;12.17;;;2.30;99.90;;;;;;5085722;28;20536;-71
2023/03/06 04:17:14;;;;;;;27.83;13.57;;;2.20;99.90;;;;;;5076729;28;20486;-71
2023/03/06 04:19:41;;;;;;;26.40;13.07;;;2.20;99.90;;;;;;5071196;28;20451;-71
2023/03/06 04:22:07;;;;;;;19.13;10.90;;;2.30;99.90;;;;;;5076638;28;20449;-71
2023/03/06 04:24:35;;;;;;;21.53;12.37;;;2.30;99.90;;;;;;5082090;28;20904;-71
2023/03/06 04:27:02;;;;;;;19.33;10.87;;;2.20;99.90;;;;;;5071918;28;20452;-71
2023/03/06 04:29:29;;;;;;;19.97;11.00;;;2.30;99.90;;;;;;5081684;28;20512;-71
2023/03/06 04:31:55;;;;;;;18.83;11.20;;;2.40;99.90;;;;;;5074701;28;20458;-71
2023/03/06 04:34:22;;;;;;;20.37;10.40;;;2.30;99.90;;;;;;5074848;28;20525;-71
2023/03/06 04:36:49;;;;;;;19.27;11.00;;;2.30;99.90;;;;;;5074666;28;20794;-71
2023/03/06 04:39:15;;;;;;;21.00;11.60;;;2.30;99.90;;;;;;5074548;28;20554;-71
2023/03/06 04:41:43;;;;;;;19.50;11.43;;;2.30;99.90;;;;;;5075043;28;20504;-71
2023/03/06 04:44:10;;;;;;;24.07;12.23;;;2.30;99.90;;;;;;5074629;28;20474;-71
2023/03/06 04:46:37;;;;;;;17.90;10.30;;;2.30;99.90;;;;;;5083694;28;20453;-71
2023/03/06 04:49:03;;;;;;;18.37;11.20;;;2.30;99.90;;;;;;5074317;28;20450;-72
2023/03/06 04:51:30;;;;;;;20.00;10.63;;;2.30;99.90;;;;;;5074777;28;20504;-72
2023/03/06 04:53:57;;;;;;;17.87;10.93;;;2.30;99.90;;;;;;5074327;28;20473;-71
2023/03/06 04:56:23;;;;;;;19.10;10.40;;;2.40;99.90;;;;;;5074446;28;20439;-71
2023/03/06 04:58:51;;;;;;;17.07;10.10;;;2.40;99.90;;;;;;5073880;28;20540;-71
2023/03/06 05:01:18;;;;;;;20.57;12.10;;;2.40;99.90;;;;;;5081800;28;20452;-71
2023/03/06 05:03:44;;;;;;;17.30;10.57;;;2.40;99.90;;;;;;5082434;28;20484;-71
2023/03/06 05:06:11;;;;;;;21.93;11.33;;;2.40;99.90;;;;;;5078077;28;20827;-71
2023/03/06 05:08:38;;;;;;;21.60;11.80;;;2.30;99.90;;;;;;5078663;28;20487;-71
2023/03/06 05:11:05;;;;;;;21.80;11.40;;;2.30;99.90;;;;;;5073767;28;20502;-71
2023/03/06 05:13:31;;;;;;;18.83;10.97;;;2.30;99.90;;;;;;5074358;28;20800;-71
2023/03/06 05:16:03;;;;;;;20.00;10.73;;;2.20;99.90;;;;;;5074467;28;20473;-71
2023/03/06 05:18:30;;;;;;;17.00;10.20;;;2.30;99.90;;;;;;5073997;28;20531;-72
2023/03/06 05:20:58;;;;;;;22.23;11.67;;;2.20;99.90;;;;;;5073597;28;20938;-71
2023/03/06 05:23:25;;;;;;;19.60;11.23;;;2.20;99.90;;;;;;5079794;28;20476;-71
2023/03/06 05:25:52;;;;;;;20.80;11.97;;;2.20;99.90;;;;;;5079191;28;20934;-70
2023/03/06 05:28:19;;;;;;;21.50;11.63;;;2.20;99.90;;;;;;5074009;28;20440;-71
2023/03/06 05:30:45;;;;;;;28.33;12.37;;;2.20;99.90;;;;;;5083295;28;20455;-71
2023/03/06 05:33:13;;;;;;;20.67;11.90;;;2.20;99.90;;;;;;5082159;28;20475;-70
2023/03/06 05:35:45;;;;;;;22.67;12.00;;;2.20;99.90;;;;;;5077678;28;20507;-70
2023/03/06 05:38:12;;;;;;;23.20;11.90;;;2.10;99.90;;;;;;5072977;28;20585;-70
2023/03/06 05:40:40;;;;;;;24.50;11.77;;;2.10;99.90;;;;;;5073573;28;20452;-70
2023/03/06 05:43:07;;;;;;;23.97;12.47;;;2.10;99.90;;;;;;5073502;28;20840;-72
2023/03/06 05:45:33;;;;;;;23.47;12.50;;;2.10;99.90;;;;;;5082146;28;20553;-70
2023/03/06 05:48:00;;;;;;;24.20;12.60;;;2.10;99.90;;;;;;5074943;28;20928;-70
2023/03/06 05:50:28;;;;;;;22.70;12.40;;;2.10;99.90;;;;;;5073291;28;20453;-70
2023/03/06 05:52:54;;;;;;;21.33;11.47;;;2.10;99.90;;;;;;5074535;28;20531;-71
2023/03/06 05:55:22;;;;;;;23.07;12.53;;;2.10;99.90;;;;;;5073480;28;20470;-70
2023/03/06 05:57:50;;;;;;;21.93;12.23;;;2.00;99.90;;;;;;5072813;28;20584;-71
2023/03/06 06:00:18;;;;;;;24.30;12.60;;;2.00;99.90;;;;;;5077351;28;20454;-71
2023/03/06 06:02:45;;;;;;;23.23;12.63;;;2.00;99.90;;;;;;5075062;28;20454;-70
2023/03/06 06:05:12;;;;;;;25.87;13.13;;;2.00;99.90;;;;;;5072870;28;20512;-71
2023/03/06 06:07:40;;;;;;;25.03;12.93;;;2.00;99.90;;;;;;5073310;28;21011;-70
2023/03/06 06:10:08;;;;;;;31.33;14.23;;;2.00;99.90;;;;;;5073202;28;20454;-71
2023/03/06 06:12:35;;;;;;;27.97;14.40;;;2.00;99.90;;;;;;5073420;28;20445;-74
2023/03/06 06:15:01;;;;;;;27.30;13.27;;;2.00;99.90;;;;;;5083456;28;20472;-73
2023/03/06 06:17:28;;;;;;;26.30;14.30;;;2.00;99.90;;;;;;5073152;28;20454;-74
2023/03/06 06:19:54;;;;;;;25.53;14.17;;;2.00;99.90;;;;;;5078343;28;20959;-75
2023/03/06 06:22:21;;;;;;;25.53;13.30;;;2.00;99.90;;;;;;5081153;28;20454;-75
2023/03/06 06:24:49;;;;;;;29.00;13.57;;;2.00;99.90;;;;;;5093992;28;20531;-75
2023/03/06 06:27:16;;;;;;;31.60;14.97;;;2.00;99.90;;;;;;5082001;28;20499;-75
2023/03/06 06:29:42;;;;;;;29.00;13.87;;;2.00;99.90;;;;;;5074162;28;20492;-74
2023/03/06 06:32:09;;;;;;;24.63;13.53;;;2.00;99.90;;;;;;5073349;28;20461;-74
2023/03/06 06:34:35;;;;;;;23.03;13.70;;;2.00;99.90;;;;;;5074521;28;20919;-75
2023/03/06 06:37:02;;;;;;;24.10;12.67;;;2.00;99.90;;;;;;5083620;28;20545;-76
2023/03/06 06:39:29;;;;;;;25.60;13.40;;;2.00;99.90;;;;;;5078662;28;20530;-75
2023/03/06 06:41:57;;;;;;;25.07;13.70;;;2.00;99.90;;;;;;5078862;28;20453;-76
2023/03/06 06:44:23;;;;;;;24.73;12.67;;;2.00;99.90;;;;;;5079186;28;20526;-75
2023/03/06 06:46:50;;;;;;;32.67;13.30;;;2.00;99.90;;;;;;5077652;28;20452;-75
2023/03/06 06:49:17;;;;;;;28.53;13.77;;;2.00;99.90;;;;;;5077842;28;20948;-75
2023/03/06 06:51:44;;;;;;;23.37;12.60;;;2.00;99.90;;;;;;5079042;28;20455;-75
2023/03/06 06:54:11;;;;;;;24.90;12.60;;;2.00;99.90;;;;;;5078738;28;20502;-75
2023/03/06 06:56:38;;;;;;;28.40;14.10;;;2.10;99.90;;;;;;5078921;28;20449;-75
2023/03/06 06:59:06;;;;;;;27.60;13.77;;;2.10;99.90;;;;;;5078274;28;20493;-75
2023/03/06 07:01:33;;;;;;;25.93;13.87;;;2.10;99.90;;;;;;5079210;28;20496;-75
2023/03/06 07:04:00;;;;;;;28.87;14.73;;;2.10;99.90;;;;;;5077533;28;20480;-75
2023/03/06 07:06:26;;;;;;;24.80;13.10;;;2.10;99.90;;;;;;5079582;28;20481;-75
2023/03/06 07:08:53;;;;;;;28.97;14.67;;;2.20;99.90;;;;;;5078238;28;20524;-75
2023/03/06 07:11:20;;;;;;;25.13;12.07;;;2.10;99.90;;;;;;5078535;28;21305;-75
2023/03/06 07:13:47;;;;;;;23.97;12.97;;;2.10;99.90;;;;;;5079232;28;20472;-75
2023/03/06 07:16:16;;;;;;;27.10;12.50;;;2.20;99.90;;;;;;5078328;28;20460;-75
2023/03/06 07:18:44;;;;;;;25.83;13.17;;;2.20;99.90;;;;;;5078320;28;20564;-75
2023/03/06 07:21:11;;;;;;;23.93;13.13;;;2.30;99.90;;;;;;5079010;28;20458;-75
2023/03/06 07:23:37;;;;;;;28.90;12.93;;;2.30;99.90;;;;;;5078381;28;20472;-75
2023/03/06 07:26:04;;;;;;;20.20;10.97;;;2.40;99.90;;;;;;5078935;28;20471;-74
2023/03/06 07:28:31;;;;;;;24.13;12.10;;;2.40;99.90;;;;;;5078819;28;20472;-75
2023/03/06 07:30:58;;;;;;;22.40;11.70;;;2.50;99.90;;;;;;5076391;28;20466;-75
2023/03/06 07:33:26;;;;;;;22.00;12.20;;;2.40;99.90;;;;;;5077639;28;20478;-75
2023/03/06 07:35:52;;;;;;;25.10;11.80;;;2.50;99.90;;;;;;5079111;28;20535;-74
2023/03/06 07:38:19;;;;;;;23.23;11.57;;;2.50;99.90;;;;;;5077919;28;20484;-75
2023/03/06 07:40:50;;;;;;;22.77;12.00;;;2.50;99.90;;;;;;5077332;28;20471;-77
2023/03/06 07:43:16;;;;;;;24.33;13.13;;;2.60;99.90;;;;;;5079502;28;20529;-76
2023/03/06 07:45:45;;;;;;;21.63;11.30;;;2.60;99.90;;;;;;5078200;28;20459;-74
2023/03/06 07:48:12;;;;;;;22.30;11.93;;;2.60;99.90;;;;;;5076637;28;21590;-75
2023/03/06 07:50:40;;;;;;;22.00;11.50;;;2.60;99.90;;;;;;5075786;28;20465;-75
2023/03/06 07:53:07;;;;;;;20.70;11.93;;;2.60;99.90;;;;;;5078416;28;20565;-75
2023/03/06 07:55:34;;;;;;;22.70;12.63;;;2.60;99.90;;;;;;5079752;28;20631;-75
2023/03/06 07:58:00;;;;;;;22.73;13.03;;;2.70;99.90;;;;;;5078619;28;20960;-76
2023/03/06 08:00:27;;;;;;;25.87;13.33;;;2.70;99.90;;;;;;5078759;28;20452;-76
2023/03/06 08:02:54;;;;;;;27.13;13.57;;;2.80;99.90;;;;;;5081792;28;20461;-75
2023/03/06 08:05:21;;;;;;;25.80;14.40;;;2.80;99.90;;;;;;5084792;28;20463;-75
2023/03/06 08:07:49;;;;;;;27.43;13.63;;;2.80;99.90;;;;;;5086302;28;20456;-76
2023/03/06 08:10:16;;;;;;;19.43;10.10;;;2.80;99.90;;;;;;5085172;28;20493;-75
2023/03/06 08:12:43;;;;;;;28.20;12.70;;;2.90;99.90;;;;;;5086056;28;20470;-75
2023/03/06 08:15:12;;;;;;;16.07;10.33;;;2.90;99.90;;;;;;5084712;28;21113;-74
2023/03/06 08:17:38;;;;;;;34.43;13.40;;;2.90;99.90;;;;;;5085539;28;20831;-77
2023/03/06 08:20:06;;;;;;;22.70;12.87;;;3.00;99.90;;;;;;5083724;28;20521;-76
2023/03/06 08:22:34;;;;;;;25.20;13.30;;;2.90;99.90;;;;;;5085369;28;20929;-75
2023/03/06 08:25:03;;;;;;;28.47;14.00;;;3.00;99.90;;;;;;5086078;28;20556;-75
2023/03/06 08:27:31;;;;;;;26.63;14.17;;;3.00;99.90;;;;;;5085361;28;20451;-75
2023/03/06 08:29:58;;;;;;;26.63;13.50;;;3.10;99.90;;;;;;5084957;28;20496;-76
2023/03/06 08:32:25;;;;;;;25.53;13.30;;;3.00;99.90;;;;;;5085764;28;20481;-75
2023/03/06 08:34:52;;;;;;;29.00;13.93;;;3.00;99.90;;;;;;5085283;28;21065;-75
2023/03/06 08:37:19;;;;;;;28.60;14.57;;;3.10;99.90;;;;;;5085294;28;20470;-75
2023/03/06 08:39:45;;;;;;;30.70;13.67;;;3.10;99.90;;;;;;5083509;28;20488;-75
2023/03/06 08:42:14;;;;;;;34.60;15.10;;;3.20;99.90;;;;;;5083854;28;20538;-75
2023/03/06 08:44:41;;;;;;;29.00;14.43;;;3.20;99.90;;;;;;5085385;28;20505;-75
2023/03/06 08:47:08;;;;;;;25.10;13.17;;;3.30;99.90;;;;;;5084686;28;20456;-75
2023/03/06 08:49:38;;;;;;;32.07;16.23;;;3.40;99.90;;;;;;5083232;28;20442;-75
2023/03/06 08:52:05;;;;;;;29.23;14.67;;;3.50;99.90;;;;;;5084600;28;20460;-75
2023/03/06 08:54:33;;;;;;;32.53;15.30;;;3.50;99.90;;;;;;5084545;28;20469;-75
2023/03/06 08:56:59;;;;;;;26.77;14.70;;;3.50;99.90;;;;;;5084111;28;20860;-76
2023/03/06 08:59:28;;;;;;;37.70;15.23;;;3.70;99.90;;;;;;5084041;28;20540;-76
2023/03/06 09:01:54;;;;;;;32.83;13.73;;;3.70;99.90;;;;;;5084044;28;20448;-73
2023/03/06 09:04:21;;;;;;;29.97;13.60;;;3.80;99.90;;;;;;5083552;28;20483;-76
2023/03/06 09:06:47;;;;;;;31.30;14.23;;;4.00;99.90;;;;;;5084052;28;20521;-76
2023/03/06 09:09:14;;;;;;;25.03;13.60;;;4.10;99.90;;;;;;5084103;28;21075;-75
2023/03/06 09:11:41;;;;;;;30.60;15.37;;;4.20;99.90;;;;;;5083581;28;20493;-74
2023/03/06 09:14:07;;;;;;;29.53;15.73;;;4.30;99.90;;;;;;5080843;28;20540;-74
2023/03/06 09:16:35;;;;;;;30.30;16.00;;;4.30;99.90;;;;;;5080850;28;20537;-74
2023/03/06 09:19:02;;;;;;;34.70;16.33;;;4.30;99.90;;;;;;5080269;28;20483;-73
2023/03/06 09:21:29;;;;;;;25.67;14.23;;;4.50;99.90;;;;;;5079719;28;20464;-73
2023/03/06 09:23:55;;;;;;;29.70;16.07;;;4.30;99.90;;;;;;5080462;28;20527;-74
2023/03/06 09:26:22;;;;;;;27.07;14.23;;;4.20;99.90;;;;;;5080616;28;20494;-74
2023/03/06 09:28:49;;;;;;;30.03;14.30;;;4.20;99.90;;;;;;5079958;28;20494;-74
2023/03/06 09:31:18;;;;;;;23.27;13.60;;;4.20;99.90;;;;;;5079023;28;20951;-74
2023/03/06 09:33:47;;;;;;;26.23;14.77;;;4.30;99.90;;;;;;5079023;28;20476;-74
2023/03/06 09:36:15;;;;;;;27.73;13.47;;;4.30;99.90;;;;;;5079004;28;20452;-74
2023/03/06 09:38:42;;;;;;;24.43;13.17;;;4.20;99.90;;;;;;5080055;28;20525;-74
2023/03/06 09:41:22;;;;;;;28.63;13.73;;;4.20;99.90;;;;;;5079452;28;20505;-74
2023/03/06 09:43:52;;;;;;;24.10;12.37;;;4.20;99.90;;;;;;5079399;28;20896;-74
2023/03/06 09:46:22;;;;;;;24.27;13.57;;;4.20;99.90;;;;;;5079436;28;20509;-75
2023/03/06 09:49:10;;;;;;;22.67;13.13;;;4.20;99.90;;;;;;5079464;28;20501;-75
2023/03/06 09:51:48;;;;;;;26.47;12.80;;;4.20;99.90;;;;;;5080063;28;20784;-74
2023/03/06 09:54:16;;;;;;;24.73;13.67;;;4.30;99.90;;;;;;5079621;28;20467;-74
2023/03/06 09:56:48;;;;;;;25.13;12.27;;;4.50;99.90;;;;;;5080122;28;20548;-74
2023/03/06 09:59:20;;;;;;;27.37;12.20;;;4.60;99.90;;;;;;5079378;28;20484;-74
2023/03/06 10:01:56;;;;;;;18.87;11.10;;;4.70;99.90;;;;;;5077909;28;20486;-74
2023/03/06 10:04:36;;;;;;;21.00;12.93;;;4.70;99.90;;;;;;5079446;28;21041;-74
2023/03/06 10:07:11;;;;;;;20.63;11.60;;;4.80;99.90;;;;;;5078395;28;20463;-74
2023/03/06 10:09:42;;;;;;;25.07;13.20;;;4.80;99.90;;;;;;5078179;28;20962;-75
2023/03/06 10:12:20;;;;;;;22.27;12.27;;;4.90;99.90;;;;;;5079259;28;20451;-74
2023/03/06 10:14:56;;;;;;;21.90;12.47;;;4.80;99.90;;;;;;5077970;28;20551;-74
2023/03/06 10:17:25;;;;;;;24.60;12.20;;;4.80;99.90;;;;;;5078016;28;20941;-74
2023/03/06 10:19:54;;;;;;;19.30;10.90;;;4.80;99.90;;;;;;5078335;28;20973;-74
2023/03/06 10:22:27;;;;;;;19.40;11.30;;;4.90;99.90;;;;;;5079168;28;20452;-74
2023/03/06 10:24:57;;;;;;;22.30;12.60;;;5.10;99.90;;;;;;5078584;28;20466;-74
2023/03/06 10:27:38;;;;;;;23.77;11.73;;;5.20;99.90;;;;;;5079397;28;20487;-74
2023/03/06 10:30:29;;;;;;;16.57;10.63;;;5.40;99.90;;;;;;5078894;28;21347;-75
2023/03/06 10:32:57;;;;;;;17.27;9.90;;;5.50;99.90;;;;;;5074916;28;20487;-75
2023/03/06 10:35:30;;;;;;;16.90;10.33;;;5.80;99.90;;;;;;5078222;28;20451;-74
2023/03/06 10:38:09;;;;;;;17.93;9.93;;;6.00;99.90;;;;;;5079284;28;20451;-74
2023/03/06 10:40:46;;;;;;;17.57;9.83;;;6.30;99.90;;;;;;5078602;28;20479;-74
2023/03/06 10:43:12;;;;;;;15.77;9.80;;;6.30;99.90;;;;;;5078921;28;20536;-74
2023/03/06 10:45:50;;;;;;;15.40;8.70;;;6.40;99.90;;;;;;5078373;28;20965;-74
2023/03/06 10:48:23;;;;;;;14.10;8.90;;;6.60;99.90;;;;;;5078151;28;20463;-74
2023/03/06 10:50:52;;;;;;;20.07;10.37;;;7.00;99.90;;;;;;5078420;28;20446;-74
2023/03/06 10:53:24;;;;;;;15.27;9.43;;;7.30;99.90;;;;;;5078554;28;20558;-74
2023/03/06 10:55:54;;;;;;;18.90;11.07;;;7.40;99.90;;;;;;5077866;28;20449;-75
2023/03/06 10:58:25;;;;;;;17.40;10.10;;;7.50;99.90;;;;;;5078281;28;20452;-74
2023/03/06 11:01:01;;;;;;;25.10;11.40;;;7.20;99.90;;;;;;5077092;28;20485;-74
2023/03/06 11:03:29;;;;;;;14.27;8.80;;;7.00;99.90;;;;;;5079028;28;20517;-75
2023/03/06 11:06:10;;;;;;;16.70;9.73;;;6.70;99.90;;;;;;5077989;28;20497;-75
2023/03/06 11:08:37;;;;;;;13.87;8.80;;;6.50;99.90;;;;;;5078655;28;20455;-76
2023/03/06 11:11:06;;;;;;;19.27;9.20;;;6.10;99.90;;;;;;5077421;28;21739;-77
2023/03/06 11:13:36;;;;;;;18.60;10.43;;;6.20;99.90;;;;;;5076292;28;20827;-77
2023/03/06 11:16:06;;;;;;;14.90;9.20;;;6.50;99.90;;;;;;5078033;28;20517;-76
2023/03/06 11:18:39;;;;;;;18.47;10.27;;;6.70;99.90;;;;;;5078585;28;20542;-75
2023/03/06 11:21:25;;;;;;;21.00;10.30;;;7.00;99.90;;;;;;5077729;28;21051;-76
2023/03/06 11:23:53;;;;;;;16.90;10.43;;;7.00;99.90;;;;;;5077668;28;20471;-77
2023/03/06 11:26:36;;;;;;;18.93;10.37;;;6.80;99.90;;;;;;5078822;28;20511;-76
2023/03/06 11:29:28;;;;;;;18.67;11.00;;;6.70;99.90;;;;;;5078480;28;20440;-76
2023/03/06 11:31:58;;;;;;;25.67;12.47;;;6.80;99.90;;;;;;5078154;28;20870;-76
2023/03/06 11:34:37;;;;;;;23.27;11.77;;;6.60;99.90;;;;;;5078253;28;20469;-77
2023/03/06 11:37:10;;;;;;;22.27;12.33;;;6.80;99.90;;;;;;5078313;28;20444;-76
2023/03/06 11:39:41;;;;;;;24.87;12.73;;;7.00;99.90;;;;;;5077259;28;20486;-76
2023/03/06 11:42:17;;;;;;;22.30;13.30;;;7.50;99.90;;;;;;5078109;28;20463;-77
2023/03/06 11:44:53;;;;;;;22.13;13.37;;;7.80;99.90;;;;;;5077569;28;20475;-76
2023/03/06 11:47:24;;;;;;;21.03;12.97;;;7.60;99.90;;;;;;5077360;28;20459;-76
2023/03/06 11:49:59;;;;;;;23.53;13.70;;;7.10;99.90;;;;;;5078001;28;20455;-77
2023/03/06 11:52:45;;;;;;;21.60;12.10;;;6.90;99.90;;;;;;5077729;28;20449;-76
2023/03/06 11:55:16;;;;;;;25.70;12.23;;;7.00;99.90;;;;;;5077432;28;20967;-76
2023/03/06 11:57:52;;;;;;;24.67;11.83;;;6.70;99.90;;;;;;5078022;28;20471;-76
2023/03/06 12:00:29;;;;;;;19.10;12.03;;;7.00;99.90;;;;;;5077584;28;20605;-76
2023/03/06 12:03:31;;;;;;;22.20;12.47;;;7.50;99.90;;;;;;5077934;28;20469;-76
2023/03/06 12:06:03;;;;;;;20.67;12.40;;;8.10;99.90;;;;;;5077237;28;20942;-78
2023/03/06 12:08:46;;;;;;;21.90;12.77;;;8.20;99.90;;;;;;5077576;28;20477;-76
2023/03/06 12:11:19;;;;;;;21.90;13.13;;;8.00;99.90;;;;;;5076720;28;20512;-76
2023/03/06 12:13:56;;;;;;;21.97;12.70;;;7.70;99.90;;;;;;5077185;28;20864;-76
2023/03/06 12:16:46;;;;;;;20.27;11.63;;;7.20;99.90;;;;;;5077470;28;20449;-77
2023/03/06 12:19:30;;;;;;;21.87;12.43;;;6.80;99.90;;;;;;5076429;28;20803;-77
2023/03/06 12:22:16;;;;;;;23.60;12.40;;;6.70;99.90;;;;;;5076726;28;20450;-76
2023/03/06 12:25:00;;;;;;;19.33;12.13;;;6.70;99.90;;;;;;5077662;28;20231;-76
2023/03/06 12:27:36;;;;;;;19.17;11.47;;;6.60;99.90;;;;;;5076746;28;20463;-76
2023/03/06 12:30:23;;;;;;;21.60;12.83;;;6.60;99.90;;;;;;5078042;28;20440;-75
2023/03/06 12:32:58;;;;;;;19.33;11.67;;;6.80;99.90;;;;;;5077272;28;20440;-76
2023/03/06 12:35:47;;;;;;;18.40;10.87;;;7.00;99.90;;;;;;5076760;28;20505;-76
2023/03/06 12:38:45;;;;;;;16.03;9.43;;;7.00;99.90;;;;;;5077362;28;20452;-75
2023/03/06 12:41:24;;;;;;;18.37;10.57;;;7.10;99.90;;;;;;5076307;28;20534;-76
2023/03/06 12:44:11;;;;;;;18.13;9.67;;;6.80;99.90;;;;;;5078227;28;20534;-77
2023/03/06 12:46:43;;;;;;;19.23;10.27;;;6.70;99.90;;;;;;5077562;28;21029;-76
2023/03/06 12:49:17;;;;;;;19.00;10.37;;;7.30;99.90;;;;;;5080181;28;20452;-77